nws-alerts: Checking more than four warning/county codes can delay the loading of your pages. You should use a cron job to get the data.

Nearby METAR Reports

 

KOXC - Oxford/Waterbury, Connecticut, USA
Distance from station: NW 7mi, 11km
Updated: 12/02/2022 1:51am
Clear
Clear
 Wind from W
Wind: W 3 mph , 6 km/h
Temperature: 28°F , -2°C
Dew Point: 21°F , -6°C
Humidity: 74%
Barometer: 30.43 inHg , 1030.5 hPa
Clouds: Clear
Visibility: 10 miles , 16 km
2022/12/02 06:51 KOXC 020651Z AUTO 26003KT 10SM CLR M02/M06 A3043 RMK AO2 SLP325 T10171061 FZRANO
KHVN - New Haven/Tweed, Connecticut, USA
Distance from station: SE 13mi, 20km
Updated: 12/02/2022 1:53am
Clear
Clear
 Wind from W
Wind: W 5 mph , 7 km/h
Temperature: 36°F , 2°C
Wind Chill: 32°F , 0°C
Dew Point: 23°F , -5°C
Humidity: 60%
Barometer: 30.46 inHg , 1031.5 hPa
Clouds: Clear
Visibility: 10 miles , 16 km
2022/12/02 06:53 KHVN 020653Z AUTO 28004KT 10SM CLR 02/M05 A3046 RMK AO2 SLP314 T00221050
 
KMMK - Meriden, Connecticut, USA
Distance from station: NE 13mi, 21km
Updated: 12/02/2022 1:53am
Clear
Clear
 Wind from SE
Wind: SE 3 mph , 6 km/h
Temperature: 27°F , -3°C
Dew Point: 19°F , -7°C
Humidity: 74%
Barometer: 30.45 inHg , 1031.2 hPa
Clouds: Clear
Visibility: 10 miles , 16 km
2022/12/02 06:53 KMMK 020653Z AUTO 14003KT 10SM CLR M03/M07 A3045 RMK AO2 SLP314 T10331067
KBDR - Bridgeport, Connecticut, USA
Distance from station: SSW 17mi, 27km
Updated: 12/02/2022 1:52am
Clear
Clear
 Wind from WNW
Wind: WNW 7 mph , 11 km/h
Temperature: 32°F , 0°C
Wind Chill: 25°F , -4°C
Dew Point: 21°F , -6°C
Humidity: 64%
Barometer: 30.46 inHg , 1031.5 hPa
Clouds: Clear
Visibility: 10 miles , 16 km
2022/12/02 06:52 KBDR 020652Z AUTO 29006KT 10SM CLR 00/M06 A3046 RMK AO2 SLP316 T00001061
 
KDXR - Danbury, Connecticut, USA
Distance from station: W 23mi, 38km
Updated: 12/02/2022 1:53am
Clear
Clear
 Wind from calm
Wind: Calm
Temperature: 27°F , -3°C
Dew Point: 18°F , -8°C
Humidity: 69%
Barometer: 30.46 inHg , 1031.5 hPa
Clouds: Clear
Visibility: 10 miles , 16 km
2022/12/02 06:53 KDXR 020653Z AUTO 00000KT 10SM CLR M03/M08 A3046 RMK AO2 SLP317 T10331078